createdAt,value
2023-05-17T00:00:41.203Z,16.60
2023-05-17T00:03:07.908Z,16.60
2023-05-17T00:05:34.366Z,16.59
2023-05-17T00:08:03.274Z,16.57
2023-05-17T00:10:30.004Z,16.56
2023-05-17T00:12:58.710Z,16.54
2023-05-17T00:15:25.317Z,16.53
2023-05-17T00:17:52.051Z,16.54
2023-05-17T00:20:21.106Z,16.51
2023-05-17T00:22:48.605Z,16.49
2023-05-17T00:25:15.469Z,16.49
2023-05-17T00:27:43.550Z,16.46
2023-05-17T00:30:10.531Z,16.44
2023-05-17T00:32:37.024Z,16.40
2023-05-17T00:35:04.432Z,16.38
2023-05-17T00:37:32.273Z,16.37
2023-05-17T00:39:58.905Z,16.34
2023-05-17T00:42:25.368Z,16.33
2023-05-17T00:44:51.898Z,16.30
2023-05-17T00:47:18.436Z,16.25
2023-05-17T00:49:46.224Z,16.21
2023-05-17T00:52:13.055Z,16.18
2023-05-17T00:54:40.474Z,16.13
2023-05-17T00:57:07.542Z,16.09
2023-05-17T00:59:34.267Z,16.06
2023-05-17T01:02:00.747Z,16.03
2023-05-17T01:04:27.897Z,16.01
2023-05-17T01:06:54.344Z,15.96
2023-05-17T01:09:20.963Z,15.94
2023-05-17T01:11:56.967Z,15.88
2023-05-17T01:14:43.012Z,15.84
2023-05-17T01:17:18.937Z,15.84
2023-05-17T01:19:57.879Z,15.81
2023-05-17T01:22:39.316Z,15.78
2023-05-17T01:25:23.487Z,15.76
2023-05-17T01:27:52.577Z,15.76
2023-05-17T01:30:20.686Z,15.74
2023-05-17T01:32:47.452Z,15.73
2023-05-17T01:35:14.453Z,15.73
2023-05-17T01:37:41.460Z,15.73
2023-05-17T01:40:09.878Z,15.72
2023-05-17T01:42:40.580Z,15.71
2023-05-17T01:45:24.696Z,15.70
2023-05-17T01:48:06.520Z,15.67
2023-05-17T01:50:34.624Z,15.70
2023-05-17T01:53:38.128Z,15.65
2023-05-17T01:56:10.465Z,15.67
2023-05-17T01:58:45.100Z,15.66
2023-05-17T02:01:14.610Z,15.66
2023-05-17T02:03:41.166Z,15.66
2023-05-17T02:06:08.199Z,15.65
2023-05-17T02:08:34.734Z,15.65
2023-05-17T02:11:01.189Z,15.65
2023-05-17T02:13:29.392Z,15.65
2023-05-17T02:16:00.475Z,15.65
2023-05-17T02:18:28.628Z,15.67
2023-05-17T02:20:55.414Z,15.67
2023-05-17T02:23:24.574Z,15.65
2023-05-17T02:25:51.099Z,15.65
2023-05-17T02:28:18.781Z,15.64
2023-05-17T02:30:46.284Z,15.64
2023-05-17T02:33:13.006Z,15.63
2023-05-17T02:35:39.722Z,15.61
2023-05-17T02:38:06.154Z,15.59
2023-05-17T02:40:32.796Z,15.59
2023-05-17T02:42:59.563Z,15.57
2023-05-17T02:45:29.092Z,15.56
2023-05-17T02:47:56.007Z,15.55
2023-05-17T02:50:22.667Z,15.53
2023-05-17T02:52:49.447Z,15.51
2023-05-17T02:55:16.460Z,15.48
2023-05-17T02:57:42.854Z,15.45
2023-05-17T03:00:10.139Z,15.40
2023-05-17T03:02:36.675Z,15.36
2023-05-17T03:05:04.870Z,15.33
2023-05-17T03:07:31.495Z,15.31
2023-05-17T03:09:57.881Z,15.26
2023-05-17T03:12:24.437Z,15.23
2023-05-17T03:14:50.785Z,15.17
2023-05-17T03:17:17.478Z,15.13
2023-05-17T03:19:45.251Z,15.09
2023-05-17T03:22:11.779Z,15.06
2023-05-17T03:24:38.130Z,15.04
2023-05-17T03:27:05.130Z,15.04
2023-05-17T03:29:31.584Z,15.03
2023-05-17T03:31:58.540Z,15.04
2023-05-17T03:34:25.187Z,15.03
2023-05-17T03:36:51.660Z,15.05
2023-05-17T03:39:18.343Z,15.05
2023-05-17T03:41:45.349Z,15.04
2023-05-17T03:44:12.012Z,15.05
2023-05-17T03:46:38.735Z,15.04
2023-05-17T03:49:05.931Z,15.04
2023-05-17T03:51:32.581Z,15.06
2023-05-17T03:54:00.217Z,15.05
2023-05-17T03:56:27.227Z,15.04
2023-05-17T03:58:53.691Z,15.03
2023-05-17T04:01:22.824Z,15.03
2023-05-17T04:03:49.682Z,15.02
2023-05-17T04:06:16.478Z,15.03
2023-05-17T04:08:42.876Z,15.04
2023-05-17T04:11:14.170Z,15.06
2023-05-17T04:13:43.183Z,15.06
2023-05-17T04:16:10.465Z,15.08
2023-05-17T04:18:38.127Z,15.11
2023-05-17T04:21:05.592Z,15.13
2023-05-17T04:23:34.330Z,15.14
2023-05-17T04:26:00.776Z,15.17
2023-05-17T04:28:27.378Z,15.19
2023-05-17T04:30:54.394Z,15.23
2023-05-17T04:33:20.938Z,15.25
2023-05-17T04:35:49.567Z,15.27
2023-05-17T04:38:16.203Z,15.31
2023-05-17T04:40:43.085Z,15.35
2023-05-17T04:43:10.775Z,15.34
2023-05-17T04:45:38.020Z,15.35
2023-05-17T04:48:04.953Z,15.34
2023-05-17T04:50:31.399Z,15.35
2023-05-17T04:52:57.790Z,15.36
2023-05-17T04:55:24.518Z,15.38
2023-05-17T04:57:51.347Z,15.40
2023-05-17T05:00:22.920Z,15.42
2023-05-17T05:02:50.253Z,15.46
2023-05-17T05:05:16.925Z,15.46
2023-05-17T05:07:43.377Z,15.51
2023-05-17T05:10:10.140Z,15.52
2023-05-17T05:12:37.770Z,15.54
2023-05-17T05:15:04.600Z,15.57
2023-05-17T05:17:31.475Z,15.60
2023-05-17T05:19:58.389Z,15.63
2023-05-17T05:22:25.719Z,15.66
2023-05-17T05:24:52.479Z,15.68
2023-05-17T05:27:18.995Z,15.70
2023-05-17T05:29:46.261Z,15.73
2023-05-17T05:32:17.207Z,15.74
2023-05-17T05:34:44.996Z,15.75
2023-05-17T05:37:11.474Z,15.78
2023-05-17T05:39:38.217Z,15.80
2023-05-17T05:42:05.081Z,15.82
2023-05-17T05:44:31.720Z,15.85
2023-05-17T05:46:58.315Z,15.89
2023-05-17T05:49:26.216Z,15.93
2023-05-17T05:51:52.661Z,15.98
2023-05-17T05:54:19.088Z,16.02
2023-05-17T05:56:45.835Z,16.06
2023-05-17T05:59:12.464Z,16.11
2023-05-17T06:01:38.916Z,16.14
2023-05-17T06:04:05.608Z,16.16
2023-05-17T06:06:32.213Z,16.17
2023-05-17T06:08:59.735Z,16.20
2023-05-17T06:11:26.501Z,16.24
2023-05-17T06:13:52.914Z,16.27
2023-05-17T06:16:19.394Z,16.32
2023-05-17T06:18:47.954Z,16.36
2023-05-17T06:21:17.697Z,16.42
2023-05-17T06:23:44.069Z,16.48
2023-05-17T06:26:11.459Z,16.52
2023-05-17T06:28:38.393Z,16.57
2023-05-17T06:31:05.082Z,16.63
2023-05-17T06:33:31.572Z,16.68
2023-05-17T06:35:58.715Z,16.72
2023-05-17T06:38:28.081Z,16.76
2023-05-17T06:40:57.507Z,16.80
2023-05-17T06:43:24.525Z,16.85
2023-05-17T06:45:51.498Z,16.88
2023-05-17T06:48:18.203Z,16.91
2023-05-17T06:50:44.744Z,16.92
2023-05-17T06:53:11.227Z,16.93
2023-05-17T06:55:37.926Z,16.96
2023-05-17T06:58:04.359Z,16.98
2023-05-17T07:00:31.930Z,17.01
2023-05-17T07:02:59.129Z,17.03
2023-05-17T07:05:26.878Z,17.06
2023-05-17T07:07:53.340Z,17.08
2023-05-17T07:10:20.088Z,17.10
2023-05-17T07:12:48.564Z,17.14
2023-05-17T07:15:15.818Z,17.17
2023-05-17T07:17:42.329Z,17.23
2023-05-17T07:20:09.491Z,17.30
2023-05-17T07:22:37.061Z,17.36
2023-05-17T07:25:06.753Z,17.42
2023-05-17T07:27:33.232Z,17.48
2023-05-17T07:30:00.870Z,17.54
2023-05-17T07:32:27.359Z,17.61
2023-05-17T07:34:54.418Z,17.67
2023-05-17T07:37:21.007Z,17.76
2023-05-17T07:39:48.330Z,17.84
2023-05-17T07:42:14.753Z,17.90
2023-05-17T07:44:41.214Z,17.99
2023-05-17T07:47:07.968Z,18.08
2023-05-17T07:49:34.519Z,18.17
2023-05-17T07:52:03.906Z,18.24
2023-05-17T07:54:31.902Z,18.30
2023-05-17T07:56:59.616Z,18.35
2023-05-17T07:59:26.332Z,18.37
2023-05-17T08:01:54.417Z,18.38
2023-05-17T08:04:21.164Z,18.40
2023-05-17T08:06:48.429Z,18.37
2023-05-17T08:09:16.600Z,18.34
2023-05-17T08:11:46.709Z,18.33
2023-05-17T08:14:17.311Z,18.32
2023-05-17T08:16:47.282Z,18.38
2023-05-17T08:19:16.606Z,18.47
2023-05-17T08:21:43.970Z,18.57
2023-05-17T08:24:10.719Z,18.66
2023-05-17T08:26:38.380Z,18.70
2023-05-17T08:29:05.021Z,18.73
2023-05-17T08:31:32.458Z,18.77
2023-05-17T08:33:59.264Z,18.79
2023-05-17T08:36:25.996Z,18.80
2023-05-17T08:38:53.008Z,18.80
2023-05-17T08:41:20.793Z,18.80
2023-05-17T08:43:49.498Z,18.80
2023-05-17T08:46:18.758Z,18.81
2023-05-17T08:48:46.918Z,18.84
2023-05-17T08:51:14.605Z,18.86
2023-05-17T08:53:42.376Z,18.89
2023-05-17T08:56:11.547Z,18.92
2023-05-17T08:58:55.391Z,18.98
2023-05-17T09:01:25.826Z,19.09
2023-05-17T09:03:54.023Z,19.17
2023-05-17T09:06:22.433Z,19.27
2023-05-17T09:08:55.065Z,19.31
2023-05-17T09:11:28.114Z,19.35
2023-05-17T09:13:58.559Z,19.39
2023-05-17T09:16:26.445Z,19.37
2023-05-17T09:18:55.835Z,19.35
2023-05-17T09:21:24.614Z,19.34
2023-05-17T09:24:04.848Z,19.32
2023-05-17T09:26:40.485Z,19.31
2023-05-17T09:29:15.562Z,19.31
2023-05-17T09:31:43.415Z,19.31
2023-05-17T09:34:10.640Z,19.27
2023-05-17T09:36:39.696Z,19.23
2023-05-17T09:39:10.743Z,19.22
2023-05-17T09:41:45.842Z,19.20
2023-05-17T09:44:13.345Z,19.21
2023-05-17T09:46:46.259Z,19.17
2023-05-17T09:49:16.076Z,19.16
2023-05-17T09:51:48.351Z,19.12
2023-05-17T09:54:15.073Z,19.14
2023-05-17T09:56:42.165Z,19.16
2023-05-17T09:59:14.076Z,19.18
2023-05-17T10:01:42.666Z,19.23
2023-05-17T10:04:11.072Z,19.25
2023-05-17T10:06:46.513Z,19.29
2023-05-17T10:09:18.785Z,19.33
2023-05-17T10:11:47.566Z,19.35
2023-05-17T10:14:22.580Z,19.35
2023-05-17T10:16:51.158Z,19.40
2023-05-17T10:19:20.229Z,19.42
2023-05-17T10:21:54.616Z,19.42
2023-05-17T10:24:24.520Z,19.47
2023-05-17T10:26:52.149Z,19.46
2023-05-17T10:29:20.874Z,19.47
2023-05-17T10:31:50.930Z,19.51
2023-05-17T10:34:19.053Z,19.54
2023-05-17T10:36:46.449Z,19.61
2023-05-17T10:39:13.235Z,19.65
2023-05-17T10:41:44.795Z,19.68
2023-05-17T10:44:14.632Z,19.71
2023-05-17T10:46:50.685Z,19.70
2023-05-17T10:49:22.128Z,19.69
2023-05-17T10:51:51.602Z,19.65
2023-05-17T10:54:18.655Z,19.64
2023-05-17T10:56:52.348Z,19.64
2023-05-17T10:59:23.850Z,19.64
2023-05-17T11:02:04.781Z,19.67
2023-05-17T11:04:44.951Z,19.67
2023-05-17T11:07:19.034Z,19.72
2023-05-17T11:09:53.879Z,19.76
2023-05-17T11:12:33.340Z,19.82
2023-05-17T11:15:00.735Z,19.88
2023-05-17T11:17:33.908Z,19.92
2023-05-17T11:20:27.664Z,19.96
2023-05-17T11:23:16.026Z,20.03
2023-05-17T11:25:42.763Z,20.14
2023-05-17T11:28:21.543Z,20.17
2023-05-17T11:30:54.177Z,20.25
2023-05-17T11:33:37.125Z,20.29
2023-05-17T11:36:15.623Z,20.27
2023-05-17T11:38:41.994Z,20.34
2023-05-17T11:43:52.319Z,20.34
2023-05-17T11:46:21.650Z,20.29
2023-05-17T11:48:50.727Z,20.25
2023-05-17T11:51:17.907Z,20.21
2023-05-17T11:53:44.940Z,20.16
2023-05-17T11:56:11.856Z,20.12
2023-05-17T11:58:38.682Z,20.05
2023-05-17T12:01:06.529Z,20.01
2023-05-17T12:03:33.865Z,19.97
2023-05-17T12:06:06.963Z,19.93
2023-05-17T12:08:35.336Z,19.95
2023-05-17T12:11:02.285Z,19.95
2023-05-17T12:13:30.332Z,19.98
2023-05-17T12:16:00.448Z,20.03
2023-05-17T12:18:48.708Z,20.07
2023-05-17T12:21:16.156Z,20.17
2023-05-17T12:23:44.093Z,20.24
2023-05-17T12:26:11.725Z,20.25
2023-05-17T12:28:41.862Z,20.26
2023-05-17T12:31:14.079Z,20.27
2023-05-17T12:33:43.245Z,20.29
2023-05-17T12:36:13.575Z,20.31
2023-05-17T12:38:44.646Z,20.31
2023-05-17T12:41:12.929Z,20.30
2023-05-17T12:43:40.400Z,20.27
2023-05-17T12:46:17.807Z,20.22
2023-05-17T12:48:44.923Z,20.21
2023-05-17T12:51:18.495Z,20.17
2023-05-17T12:53:50.037Z,20.13
2023-05-17T12:56:18.864Z,20.13
2023-05-17T12:59:04.531Z,20.11
2023-05-17T13:01:52.410Z,20.13
2023-05-17T13:04:22.339Z,20.14
2023-05-17T13:06:53.833Z,20.12
2023-05-17T13:09:22.469Z,20.14
2023-05-17T13:11:56.001Z,20.15
2023-05-17T13:14:39.112Z,20.13
2023-05-17T13:17:27.287Z,20.13
2023-05-17T13:19:57.065Z,20.11
2023-05-17T13:22:25.442Z,20.12
2023-05-17T13:24:53.712Z,20.11
2023-05-17T13:27:20.258Z,20.12
2023-05-17T13:29:46.970Z,20.15
2023-05-17T13:32:14.012Z,20.17
2023-05-17T13:34:41.271Z,20.20
2023-05-17T13:37:11.506Z,20.21
2023-05-17T13:39:38.921Z,20.20
2023-05-17T13:42:05.716Z,20.18
2023-05-17T13:44:32.493Z,20.16
2023-05-17T13:46:58.898Z,20.15
2023-05-17T13:49:25.881Z,20.16
2023-05-17T13:51:52.229Z,20.19
2023-05-17T13:54:20.571Z,20.25
2023-05-17T13:56:47.040Z,20.32
2023-05-17T13:59:14.090Z,20.42
2023-05-17T14:01:44.119Z,20.50
2023-05-17T14:04:11.507Z,20.58
2023-05-17T14:06:39.341Z,20.62
2023-05-17T14:09:06.622Z,20.63
2023-05-17T14:11:36.343Z,20.61
2023-05-17T14:14:04.170Z,20.57
2023-05-17T14:16:31.417Z,20.53
2023-05-17T14:18:58.612Z,20.48
2023-05-17T14:21:26.508Z,20.44
2023-05-17T14:23:52.949Z,20.42
2023-05-17T14:26:19.644Z,20.41
2023-05-17T14:28:46.071Z,20.43
2023-05-17T14:31:12.514Z,20.46
2023-05-17T14:33:38.941Z,20.50
2023-05-17T14:36:05.582Z,20.56
2023-05-17T14:38:32.126Z,20.59
2023-05-17T14:41:03.029Z,20.64
2023-05-17T14:43:29.637Z,20.68
2023-05-17T14:45:56.364Z,20.69
2023-05-17T14:48:23.130Z,20.68
2023-05-17T14:50:49.820Z,20.66
2023-05-17T14:53:16.786Z,20.62
2023-05-17T14:55:43.532Z,20.59
2023-05-17T14:58:13.021Z,20.58
2023-05-17T15:00:41.544Z,20.56
2023-05-17T15:03:08.881Z,20.59
2023-05-17T15:05:35.648Z,20.62
2023-05-17T15:08:03.472Z,20.65
2023-05-17T15:10:30.354Z,20.66
2023-05-17T15:12:57.011Z,20.65
2023-05-17T15:15:23.492Z,20.64
2023-05-17T15:17:50.199Z,20.63
2023-05-17T15:20:18.911Z,20.62
2023-05-17T15:22:45.960Z,20.61
2023-05-17T15:25:13.608Z,20.62
2023-05-17T15:27:40.026Z,20.62
2023-05-17T15:30:07.268Z,20.59
2023-05-17T15:32:34.128Z,20.56
2023-05-17T15:35:00.576Z,20.50
2023-05-17T15:37:27.250Z,20.48
2023-05-17T15:39:53.709Z,20.43
2023-05-17T15:42:20.071Z,20.39
2023-05-17T15:44:47.773Z,20.36
2023-05-17T15:47:14.333Z,20.36
2023-05-17T15:49:41.258Z,20.36
2023-05-17T15:52:07.915Z,20.36
2023-05-17T15:54:34.329Z,20.37
2023-05-17T15:57:00.742Z,20.39
2023-05-17T15:59:28.436Z,20.40
2023-05-17T16:01:54.833Z,20.42
2023-05-17T16:04:21.264Z,20.43
2023-05-17T16:06:47.983Z,20.45
2023-05-17T16:09:14.493Z,20.50
2023-05-17T16:11:41.176Z,20.65
2023-05-17T16:14:09.258Z,20.63
2023-05-17T16:16:35.851Z,20.60
2023-05-17T16:19:04.750Z,20.59
2023-05-17T16:21:32.143Z,20.55
2023-05-17T16:23:58.759Z,20.51
2023-05-17T16:26:25.149Z,20.46
2023-05-17T16:28:52.173Z,20.41
2023-05-17T16:31:18.909Z,20.37
2023-05-17T16:33:45.811Z,20.33
2023-05-17T16:36:12.408Z,20.29
2023-05-17T16:38:39.078Z,20.29
2023-05-17T16:41:05.769Z,20.27
2023-05-17T16:43:32.300Z,20.28
2023-05-17T16:45:58.938Z,20.28
2023-05-17T16:48:25.878Z,20.27
2023-05-17T16:50:52.405Z,20.25
2023-05-17T16:53:18.973Z,20.24
2023-05-17T16:55:45.856Z,20.21
2023-05-17T16:58:12.570Z,20.18
2023-05-17T17:00:39.249Z,20.17
2023-05-17T17:03:09.004Z,20.14
2023-05-17T17:05:36.467Z,20.13
2023-05-17T17:08:02.977Z,20.14
2023-05-17T17:10:29.774Z,20.14
2023-05-17T17:12:56.452Z,20.15
2023-05-17T17:15:23.915Z,20.16
2023-05-17T17:17:50.726Z,20.16
2023-05-17T17:20:18.672Z,20.15
2023-05-17T17:22:45.272Z,20.16
2023-05-17T17:25:11.761Z,20.15
2023-05-17T17:27:38.455Z,20.14
2023-05-17T17:30:06.428Z,20.14
2023-05-17T17:32:33.353Z,20.15
2023-05-17T17:35:00.169Z,20.14
2023-05-17T17:37:26.676Z,20.12
2023-05-17T17:39:53.066Z,20.10
2023-05-17T17:42:20.040Z,20.07
2023-05-17T17:44:46.765Z,20.01
2023-05-17T17:47:13.414Z,19.99
2023-05-17T17:49:40.017Z,19.96
2023-05-17T17:52:07.962Z,19.93
2023-05-17T17:54:34.692Z,19.91
2023-05-17T17:57:02.356Z,19.89
2023-05-17T17:59:29.085Z,19.86
2023-05-17T18:01:55.769Z,19.84
2023-05-17T18:04:22.204Z,19.84
2023-05-17T18:06:50.091Z,19.81
2023-05-17T18:09:16.864Z,19.82
2023-05-17T18:11:43.291Z,19.83
2023-05-17T18:14:09.705Z,19.81
2023-05-17T18:16:36.070Z,19.84
2023-05-17T18:19:02.515Z,19.82
2023-05-17T18:21:33.575Z,19.82
2023-05-17T18:24:00.232Z,19.81
2023-05-17T18:26:27.244Z,19.79
2023-05-17T18:28:53.655Z,19.75
2023-05-17T18:31:20.257Z,19.73
2023-05-17T18:33:46.757Z,19.70
2023-05-17T18:36:14.385Z,19.64
2023-05-17T18:38:40.780Z,19.61
2023-05-17T18:41:07.211Z,19.56
2023-05-17T18:43:34.805Z,19.51
2023-05-17T18:46:01.384Z,19.47
2023-05-17T18:48:28.427Z,19.43
2023-05-17T18:50:57.414Z,19.40
2023-05-17T18:53:25.243Z,19.36
2023-05-17T18:55:51.679Z,19.34
2023-05-17T18:58:18.087Z,19.30
2023-05-17T19:00:48.098Z,19.26
2023-05-17T19:03:16.294Z,19.21
2023-05-17T19:05:45.324Z,19.19
2023-05-17T19:08:11.722Z,19.15
2023-05-17T19:10:39.681Z,19.10
2023-05-17T19:13:09.131Z,19.07
2023-05-17T19:15:35.676Z,19.02
2023-05-17T19:18:02.046Z,18.98
2023-05-17T19:20:28.709Z,18.92
2023-05-17T19:22:55.598Z,18.87
2023-05-17T19:25:22.051Z,18.82
2023-05-17T19:27:48.504Z,18.77
2023-05-17T19:30:16.245Z,18.69
2023-05-17T19:32:42.875Z,18.64
2023-05-17T19:35:09.970Z,18.58
2023-05-17T19:37:36.693Z,18.53
2023-05-17T19:40:05.869Z,18.47
2023-05-17T19:42:32.370Z,18.43
2023-05-17T19:44:59.169Z,18.40
2023-05-17T19:47:25.833Z,18.36
2023-05-17T19:49:54.600Z,18.33
2023-05-17T19:52:21.411Z,18.30
2023-05-17T19:54:47.869Z,18.28
2023-05-17T19:57:14.617Z,18.25
2023-05-17T19:59:41.888Z,18.23
2023-05-17T20:02:08.684Z,18.20
2023-05-17T20:04:35.406Z,18.17
2023-05-17T20:07:02.022Z,18.14
2023-05-17T20:09:30.346Z,18.10
2023-05-17T20:11:58.627Z,18.06
2023-05-17T20:14:25.150Z,18.01
2023-05-17T20:16:51.689Z,17.97
2023-05-17T20:19:18.289Z,17.92
2023-05-17T20:21:46.683Z,17.86
2023-05-17T20:24:13.458Z,17.83
2023-05-17T20:26:40.164Z,17.79
2023-05-17T20:29:08.199Z,17.73
2023-05-17T20:31:36.522Z,17.70
2023-05-17T20:34:06.306Z,17.66
2023-05-17T20:36:33.316Z,17.63
2023-05-17T20:38:59.826Z,17.57
2023-05-17T20:41:26.313Z,17.54
2023-05-17T20:43:54.493Z,17.47
2023-05-17T20:46:21.606Z,17.45
2023-05-17T20:48:49.911Z,17.41
2023-05-17T20:51:18.180Z,17.38
2023-05-17T20:53:46.919Z,17.36
2023-05-17T20:56:19.224Z,17.33
2023-05-17T20:58:46.941Z,17.29
2023-05-17T21:01:13.821Z,17.27
2023-05-17T21:03:41.056Z,17.23
2023-05-17T21:06:08.225Z,17.21
2023-05-17T21:08:35.589Z,17.17
2023-05-17T21:11:02.040Z,17.15
2023-05-17T21:13:28.407Z,17.13
2023-05-17T21:15:55.616Z,17.10
2023-05-17T21:18:23.507Z,17.06
2023-05-17T21:20:51.317Z,17.04
2023-05-17T21:23:18.979Z,17.01
2023-05-17T21:25:45.753Z,16.99
2023-05-17T21:28:13.573Z,16.94
2023-05-17T21:30:40.207Z,16.93
2023-05-17T21:33:07.317Z,16.90
2023-05-17T21:35:33.942Z,16.88
2023-05-17T21:38:00.711Z,16.85
2023-05-17T21:40:27.170Z,16.79
2023-05-17T21:42:53.764Z,16.76
2023-05-17T21:45:20.400Z,16.71
2023-05-17T21:47:47.257Z,16.66
2023-05-17T21:50:13.834Z,16.61
2023-05-17T21:52:40.699Z,16.57
2023-05-17T21:55:07.709Z,16.54
2023-05-17T21:57:36.477Z,16.51
2023-05-17T22:00:05.834Z,16.50
2023-05-17T22:02:34.583Z,16.45
2023-05-17T22:05:01.531Z,16.42
2023-05-17T22:07:28.110Z,16.38
2023-05-17T22:09:55.154Z,16.34
2023-05-17T22:12:25.330Z,16.28
2023-05-17T22:14:53.619Z,16.24
2023-05-17T22:17:29.663Z,16.19
2023-05-17T22:20:00.445Z,16.13
2023-05-17T22:22:27.311Z,16.09
2023-05-17T22:24:54.197Z,16.05
2023-05-17T22:27:21.869Z,16.00
2023-05-17T22:29:49.071Z,15.98
2023-05-17T22:32:16.221Z,15.96
2023-05-17T22:34:45.890Z,15.93
2023-05-17T22:37:12.416Z,15.89
2023-05-17T22:39:42.309Z,15.87
2023-05-17T22:42:09.511Z,15.86
2023-05-17T22:44:37.279Z,15.84
2023-05-17T22:47:04.917Z,15.82
2023-05-17T22:49:36.084Z,15.82
2023-05-17T22:52:07.774Z,15.82
2023-05-17T22:54:36.162Z,15.82
2023-05-17T22:57:05.729Z,15.82
2023-05-17T22:59:33.524Z,15.82
2023-05-17T23:02:00.966Z,15.82
2023-05-17T23:04:27.707Z,15.81
2023-05-17T23:06:54.950Z,15.79
2023-05-17T23:09:22.090Z,15.77
2023-05-17T23:11:49.985Z,15.73
2023-05-17T23:14:17.807Z,15.69
2023-05-17T23:16:44.215Z,15.64
2023-05-17T23:19:10.745Z,15.61
2023-05-17T23:21:37.610Z,15.58
2023-05-17T23:24:04.179Z,15.56
2023-05-17T23:26:31.043Z,15.52
2023-05-17T23:28:58.019Z,15.50
2023-05-17T23:31:25.831Z,15.47
2023-05-17T23:33:52.647Z,15.46
2023-05-17T23:36:21.598Z,15.43
2023-05-17T23:38:48.050Z,15.43
2023-05-17T23:41:18.362Z,15.40
2023-05-17T23:43:45.357Z,15.39
2023-05-17T23:46:13.670Z,15.36
2023-05-17T23:48:40.269Z,15.34
2023-05-17T23:51:06.721Z,15.31
2023-05-17T23:53:34.227Z,15.29
2023-05-17T23:56:01.179Z,15.25
2023-05-17T23:58:27.591Z,15.23
